Disclaimer

Please do not use the information listed here in-flight or in-navigation, as they are not provided to us by the airports but are provided by volunteers, so they might be outdated.

Search


Regions


Airport information page

Radio informations:
Tower (TWR) - 122.3 MHz

Airport informations:
Latitude: 30° 51' 16.85" N
Longitude: 075° 57' 09.33" E
Elevation: 834 feet - 254 meters
Operating hours: N/A
Operating agency: Civil government, landing fees and diplomatic clearance may be required
Timezone: UTC+5:30
Fuel: N/A

Runway information:
12/30 - 4800 x 98 feet< - >1463 x 30 meters

Recent METARs:
VILD 151030Z 33005KT 3000 HZ NSC 24/09 Q1016
VILD 151100Z 33007KT 3000 HZ NSC 23/10 Q1016
VILD 151100Z 33007KT 3000 HZ NSC 23/10 Q1016

Airport on the map: